sensor_id;sensor_type;location;lat;lon;timestamp;temperature;humidity
8099;DHT22;4092;47.876;9.372;2023-10-09T00:02:43;14.20;99.90
8099;DHT22;4092;47.876;9.372;2023-10-09T00:05:11;14.20;99.90
8099;DHT22;4092;47.876;9.372;2023-10-09T00:07:48;14.10;99.90
8099;DHT22;4092;47.876;9.372;2023-10-09T00:10:20;14.10;99.90
8099;DHT22;4092;47.876;9.372;2023-10-09T00:12:49;14.10;99.90
8099;DHT22;4092;47.876;9.372;2023-10-09T00:15:17;14.10;99.90
8099;DHT22;4092;47.876;9.372;2023-10-09T00:17:45;14.10;99.90
8099;DHT22;4092;47.876;9.372;2023-10-09T00:20:13;14.10;99.90
8099;DHT22;4092;47.876;9.372;2023-10-09T00:22:56;14.10;99.90
8099;DHT22;4092;47.876;9.372;2023-10-09T00:25:25;14.10;99.90
8099;DHT22;4092;47.876;9.372;2023-10-09T00:28:01;14.10;99.90
8099;DHT22;4092;47.876;9.372;2023-10-09T00:30:44;14.10;99.90
8099;DHT22;4092;47.876;9.372;2023-10-09T00:33:12;14.20;99.90
8099;DHT22;4092;47.876;9.372;2023-10-09T00:35:39;14.20;99.90
8099;DHT22;4092;47.876;9.372;2023-10-09T00:38:19;14.20;99.90
8099;DHT22;4092;47.876;9.372;2023-10-09T00:40:59;14.20;99.90
8099;DHT22;4092;47.876;9.372;2023-10-09T00:43:35;14.20;99.90
8099;DHT22;4092;47.876;9.372;2023-10-09T00:46:05;14.30;99.90
8099;DHT22;4092;47.876;9.372;2023-10-09T00:48:37;14.30;99.90
8099;DHT22;4092;47.876;9.372;2023-10-09T00:51:07;14.30;99.90
8099;DHT22;4092;47.876;9.372;2023-10-09T00:53:44;14.30;99.90
8099;DHT22;4092;47.876;9.372;2023-10-09T00:56:16;14.30;99.90
8099;DHT22;4092;47.876;9.372;2023-10-09T00:58:55;14.20;99.90
8099;DHT22;4092;47.876;9.372;2023-10-09T01:01:26;14.20;99.90
8099;DHT22;4092;47.876;9.372;2023-10-09T01:04:01;14.20;99.90
8099;DHT22;4092;47.876;9.372;2023-10-09T01:06:38;14.10;99.90
8099;DHT22;4092;47.876;9.372;2023-10-09T01:09:11;14.20;99.90
8099;DHT22;4092;47.876;9.372;2023-10-09T01:11:41;14.30;99.90
8099;DHT22;4092;47.876;9.372;2023-10-09T01:14:29;14.30;99.90
8099;DHT22;4092;47.876;9.372;2023-10-09T01:16:57;14.30;99.90
8099;DHT22;4092;47.876;9.372;2023-10-09T01:19:26;14.20;99.90
8099;DHT22;4092;47.876;9.372;2023-10-09T01:21:53;14.20;99.90
8099;DHT22;4092;47.876;9.372;2023-10-09T01:24:22;14.10;99.90
8099;DHT22;4092;47.876;9.372;2023-10-09T01:26:52;14.10;99.90
8099;DHT22;4092;47.876;9.372;2023-10-09T01:29:21;14.10;99.90
8099;DHT22;4092;47.876;9.372;2023-10-09T01:31:54;14.30;99.90
8099;DHT22;4092;47.876;9.372;2023-10-09T01:34:22;14.30;99.90
8099;DHT22;4092;47.876;9.372;2023-10-09T01:37:05;14.40;99.90
8099;DHT22;4092;47.876;9.372;2023-10-09T01:39:42;14.30;99.90
8099;DHT22;4092;47.876;9.372;2023-10-09T01:42:10;14.40;99.90
8099;DHT22;4092;47.876;9.372;2023-10-09T01:44:49;14.50;99.90
8099;DHT22;4092;47.876;9.372;2023-10-09T01:47:16;14.50;99.90
8099;DHT22;4092;47.876;9.372;2023-10-09T01:49:44;14.70;99.90
8099;DHT22;4092;47.876;9.372;2023-10-09T01:52:15;14.70;99.90
8099;DHT22;4092;47.876;9.372;2023-10-09T01:54:45;14.70;99.90
8099;DHT22;4092;47.876;9.372;2023-10-09T01:57:15;14.70;99.90
8099;DHT22;4092;47.876;9.372;2023-10-09T01:59:49;14.60;99.90
8099;DHT22;4092;47.876;9.372;2023-10-09T02:02:19;14.50;99.90
8099;DHT22;4092;47.876;9.372;2023-10-09T02:04:53;14.40;99.90
8099;DHT22;4092;47.876;9.372;2023-10-09T02:07:31;14.20;99.90
8099;DHT22;4092;47.876;9.372;2023-10-09T02:10:08;14.10;99.90
8099;DHT22;4092;47.876;9.372;2023-10-09T02:12:47;13.90;99.90
8099;DHT22;4092;47.876;9.372;2023-10-09T02:15:19;13.80;99.90
8099;DHT22;4092;47.876;9.372;2023-10-09T02:18:06;13.80;99.90
8099;DHT22;4092;47.876;9.372;2023-10-09T02:20:44;13.80;99.90
8099;DHT22;4092;47.876;9.372;2023-10-09T02:23:12;13.80;99.90
8099;DHT22;4092;47.876;9.372;2023-10-09T02:25:42;13.80;99.90
8099;DHT22;4092;47.876;9.372;2023-10-09T02:28:11;13.80;99.90
8099;DHT22;4092;47.876;9.372;2023-10-09T02:30:43;13.80;99.90
8099;DHT22;4092;47.876;9.372;2023-10-09T02:33:14;13.90;99.90
8099;DHT22;4092;47.876;9.372;2023-10-09T02:35:44;13.90;99.90
8099;DHT22;4092;47.876;9.372;2023-10-09T02:38:17;13.90;99.90
8099;DHT22;4092;47.876;9.372;2023-10-09T02:40:52;13.90;99.90
8099;DHT22;4092;47.876;9.372;2023-10-09T02:43:34;13.90;99.90
8099;DHT22;4092;47.876;9.372;2023-10-09T02:46:10;13.90;99.90
8099;DHT22;4092;47.876;9.372;2023-10-09T02:48:40;13.90;99.90
8099;DHT22;4092;47.876;9.372;2023-10-09T02:51:12;13.90;99.90
8099;DHT22;4092;47.876;9.372;2023-10-09T02:53:43;13.90;99.90
8099;DHT22;4092;47.876;9.372;2023-10-09T02:56:11;14.00;99.90
8099;DHT22;4092;47.876;9.372;2023-10-09T02:58:39;14.00;99.90
8099;DHT22;4092;47.876;9.372;2023-10-09T03:01:12;14.00;99.90
8099;DHT22;4092;47.876;9.372;2023-10-09T03:03:41;14.00;99.90
8099;DHT22;4092;47.876;9.372;2023-10-09T03:06:12;14.00;99.90
8099;DHT22;4092;47.876;9.372;2023-10-09T03:08:44;14.00;99.90
8099;DHT22;4092;47.876;9.372;2023-10-09T03:11:14;14.10;99.90
8099;DHT22;4092;47.876;9.372;2023-10-09T03:13:41;14.00;99.90
8099;DHT22;4092;47.876;9.372;2023-10-09T03:16:10;14.10;99.90
8099;DHT22;4092;47.876;9.372;2023-10-09T03:18:40;14.20;99.90
8099;DHT22;4092;47.876;9.372;2023-10-09T03:21:07;14.20;99.90
8099;DHT22;4092;47.876;9.372;2023-10-09T03:23:35;14.30;99.90
8099;DHT22;4092;47.876;9.372;2023-10-09T03:26:04;14.40;99.90
8099;DHT22;4092;47.876;9.372;2023-10-09T03:28:32;14.50;99.90
8099;DHT22;4092;47.876;9.372;2023-10-09T03:31:00;14.50;99.90
8099;DHT22;4092;47.876;9.372;2023-10-09T03:33:28;14.60;99.90
8099;DHT22;4092;47.876;9.372;2023-10-09T03:35:58;14.70;99.90
8099;DHT22;4092;47.876;9.372;2023-10-09T03:38:26;14.80;99.90
8099;DHT22;4092;47.876;9.372;2023-10-09T03:40:55;14.80;99.90
8099;DHT22;4092;47.876;9.372;2023-10-09T03:43:21;15.00;99.90
8099;DHT22;4092;47.876;9.372;2023-10-09T03:45:50;15.00;99.90
8099;DHT22;4092;47.876;9.372;2023-10-09T03:48:19;15.00;99.90
8099;DHT22;4092;47.876;9.372;2023-10-09T03:50:48;15.00;99.90
8099;DHT22;4092;47.876;9.372;2023-10-09T03:53:33;15.00;99.90
8099;DHT22;4092;47.876;9.372;2023-10-09T03:56:02;15.00;99.90
8099;DHT22;4092;47.876;9.372;2023-10-09T03:58:31;15.00;99.90
8099;DHT22;4092;47.876;9.372;2023-10-09T04:01:07;15.20;99.90
8099;DHT22;4092;47.876;9.372;2023-10-09T04:03:35;15.30;99.90
8099;DHT22;4092;47.876;9.372;2023-10-09T04:06:02;15.30;99.90
8099;DHT22;4092;47.876;9.372;2023-10-09T04:08:34;15.20;99.90
8099;DHT22;4092;47.876;9.372;2023-10-09T04:11:01;15.10;99.90
8099;DHT22;4092;47.876;9.372;2023-10-09T04:13:31;15.00;99.90
8099;DHT22;4092;47.876;9.372;2023-10-09T04:16:03;15.10;99.90
8099;DHT22;4092;47.876;9.372;2023-10-09T04:18:45;15.10;99.90
8099;DHT22;4092;47.876;9.372;2023-10-09T04:21:13;15.10;99.90
8099;DHT22;4092;47.876;9.372;2023-10-09T04:23:45;15.00;99.90
8099;DHT22;4092;47.876;9.372;2023-10-09T04:26:36;15.00;99.90
8099;DHT22;4092;47.876;9.372;2023-10-09T04:29:03;15.00;99.90
8099;DHT22;4092;47.876;9.372;2023-10-09T04:31:33;15.00;99.90
8099;DHT22;4092;47.876;9.372;2023-10-09T04:34:03;15.10;99.90
8099;DHT22;4092;47.876;9.372;2023-10-09T04:36:44;15.10;99.90
8099;DHT22;4092;47.876;9.372;2023-10-09T04:39:16;15.10;99.90
8099;DHT22;4092;47.876;9.372;2023-10-09T04:42:01;15.00;99.90
8099;DHT22;4092;47.876;9.372;2023-10-09T04:45:02;15.00;99.90
8099;DHT22;4092;47.876;9.372;2023-10-09T04:47:48;15.10;99.90
8099;DHT22;4092;47.876;9.372;2023-10-09T04:50:32;15.10;99.90
8099;DHT22;4092;47.876;9.372;2023-10-09T04:53:02;15.10;99.90
8099;DHT22;4092;47.876;9.372;2023-10-09T04:55:48;15.10;99.90
8099;DHT22;4092;47.876;9.372;2023-10-09T04:58:21;15.10;99.90
8099;DHT22;4092;47.876;9.372;2023-10-09T05:00:52;15.10;99.90
8099;DHT22;4092;47.876;9.372;2023-10-09T05:03:42;15.10;99.90
8099;DHT22;4092;47.876;9.372;2023-10-09T05:06:22;15.10;99.90
8099;DHT22;4092;47.876;9.372;2023-10-09T05:09:20;15.00;99.90
8099;DHT22;4092;47.876;9.372;2023-10-09T05:11:47;15.00;99.90
8099;DHT22;4092;47.876;9.372;2023-10-09T05:14:35;15.20;99.90
8099;DHT22;4092;47.876;9.372;2023-10-09T05:17:05;15.30;99.90
8099;DHT22;4092;47.876;9.372;2023-10-09T05:19:43;15.30;99.90
8099;DHT22;4092;47.876;9.372;2023-10-09T05:22:20;15.30;99.90
8099;DHT22;4092;47.876;9.372;2023-10-09T05:25:02;15.30;99.90
8099;DHT22;4092;47.876;9.372;2023-10-09T05:27:41;15.40;99.90
8099;DHT22;4092;47.876;9.372;2023-10-09T05:30:16;15.40;99.90
8099;DHT22;4092;47.876;9.372;2023-10-09T05:32:56;15.40;99.90
8099;DHT22;4092;47.876;9.372;2023-10-09T05:35:48;15.50;99.90
8099;DHT22;4092;47.876;9.372;2023-10-09T05:38:31;15.50;99.90
8099;DHT22;4092;47.876;9.372;2023-10-09T05:41:01;15.40;99.90
8099;DHT22;4092;47.876;9.372;2023-10-09T05:43:51;15.40;99.90
8099;DHT22;4092;47.876;9.372;2023-10-09T05:46:35;15.20;99.90
8099;DHT22;4092;47.876;9.372;2023-10-09T05:49:16;15.20;99.90
8099;DHT22;4092;47.876;9.372;2023-10-09T05:52:00;15.10;99.90
8099;DHT22;4092;47.876;9.372;2023-10-09T05:54:49;15.10;99.90
8099;DHT22;4092;47.876;9.372;2023-10-09T05:57:46;15.10;99.90
8099;DHT22;4092;47.876;9.372;2023-10-09T06:00:30;15.10;99.90
8099;DHT22;4092;47.876;9.372;2023-10-09T06:03:15;15.10;99.90
8099;DHT22;4092;47.876;9.372;2023-10-09T06:05:52;15.10;99.90
8099;DHT22;4092;47.876;9.372;2023-10-09T06:08:32;15.20;99.90
8099;DHT22;4092;47.876;9.372;2023-10-09T06:11:34;15.10;99.90
8099;DHT22;4092;47.876;9.372;2023-10-09T06:14:06;15.10;99.90
8099;DHT22;4092;47.876;9.372;2023-10-09T06:16:40;15.10;99.90
8099;DHT22;4092;47.876;9.372;2023-10-09T06:19:26;15.10;99.90
8099;DHT22;4092;47.876;9.372;2023-10-09T06:21:55;15.30;99.90
8099;DHT22;4092;47.876;9.372;2023-10-09T06:24:41;15.40;99.90
8099;DHT22;4092;47.876;9.372;2023-10-09T06:27:08;15.50;99.90
8099;DHT22;4092;47.876;9.372;2023-10-09T06:29:49;15.50;99.90
8099;DHT22;4092;47.876;9.372;2023-10-09T06:32:40;15.60;99.90
8099;DHT22;4092;47.876;9.372;2023-10-09T06:35:16;15.60;99.90
8099;DHT22;4092;47.876;9.372;2023-10-09T06:37:46;15.60;99.90
8099;DHT22;4092;47.876;9.372;2023-10-09T06:40:34;15.70;99.90
8099;DHT22;4092;47.876;9.372;2023-10-09T06:43:18;15.60;99.90
8099;DHT22;4092;47.876;9.372;2023-10-09T06:45:54;15.60;99.90
8099;DHT22;4092;47.876;9.372;2023-10-09T06:48:24;15.50;99.90
8099;DHT22;4092;47.876;9.372;2023-10-09T06:51:11;15.50;99.90
8099;DHT22;4092;47.876;9.372;2023-10-09T06:53:41;15.50;99.90
8099;DHT22;4092;47.876;9.372;2023-10-09T06:56:33;15.60;99.90
8099;DHT22;4092;47.876;9.372;2023-10-09T06:59:18;15.60;99.90
8099;DHT22;4092;47.876;9.372;2023-10-09T07:01:49;15.70;99.90
8099;DHT22;4092;47.876;9.372;2023-10-09T07:04:37;15.70;99.90
8099;DHT22;4092;47.876;9.372;2023-10-09T07:07:14;15.80;99.90
8099;DHT22;4092;47.876;9.372;2023-10-09T07:09:42;15.90;99.90
8099;DHT22;4092;47.876;9.372;2023-10-09T07:12:32;16.00;99.90
8099;DHT22;4092;47.876;9.372;2023-10-09T07:14:59;16.10;99.90
8099;DHT22;4092;47.876;9.372;2023-10-09T07:17:50;16.20;99.90
8099;DHT22;4092;47.876;9.372;2023-10-09T07:20:18;16.30;99.90
8099;DHT22;4092;47.876;9.372;2023-10-09T07:22:59;16.40;99.90
8099;DHT22;4092;47.876;9.372;2023-10-09T07:25:39;16.60;99.90
8099;DHT22;4092;47.876;9.372;2023-10-09T07:28:22;16.70;99.90
8099;DHT22;4092;47.876;9.372;2023-10-09T07:31:16;16.70;99.90
8099;DHT22;4092;47.876;9.372;2023-10-09T07:33:50;16.80;99.90
8099;DHT22;4092;47.876;9.372;2023-10-09T07:36:22;16.90;99.90
8099;DHT22;4092;47.876;9.372;2023-10-09T07:39:04;16.90;99.90
8099;DHT22;4092;47.876;9.372;2023-10-09T07:41:39;17.10;99.90
8099;DHT22;4092;47.876;9.372;2023-10-09T07:44:12;17.10;99.90
8099;DHT22;4092;47.876;9.372;2023-10-09T07:46:56;17.20;99.90
8099;DHT22;4092;47.876;9.372;2023-10-09T07:49:37;17.30;99.90
8099;DHT22;4092;47.876;9.372;2023-10-09T07:52:04;17.40;99.90
8099;DHT22;4092;47.876;9.372;2023-10-09T07:54:31;17.50;99.90
8099;DHT22;4092;47.876;9.372;2023-10-09T07:56:59;17.50;99.90
8099;DHT22;4092;47.876;9.372;2023-10-09T07:59:35;17.50;99.90
8099;DHT22;4092;47.876;9.372;2023-10-09T08:02:07;17.40;99.90
8099;DHT22;4092;47.876;9.372;2023-10-09T08:04:39;17.50;99.90
8099;DHT22;4092;47.876;9.372;2023-10-09T08:07:14;17.50;99.90
8099;DHT22;4092;47.876;9.372;2023-10-09T08:09:45;17.60;99.90
8099;DHT22;4092;47.876;9.372;2023-10-09T08:12:23;17.70;99.90
8099;DHT22;4092;47.876;9.372;2023-10-09T08:15:26;17.70;99.90
8099;DHT22;4092;47.876;9.372;2023-10-09T08:18:03;17.70;99.90
8099;DHT22;4092;47.876;9.372;2023-10-09T08:20:36;17.70;99.90
8099;DHT22;4092;47.876;9.372;2023-10-09T08:23:17;17.80;99.90
8099;DHT22;4092;47.876;9.372;2023-10-09T08:25:59;17.80;99.90
8099;DHT22;4092;47.876;9.372;2023-10-09T08:28:38;17.80;99.90
8099;DHT22;4092;47.876;9.372;2023-10-09T08:31:11;17.80;99.90
8099;DHT22;4092;47.876;9.372;2023-10-09T08:33:45;17.70;99.90
8099;DHT22;4092;47.876;9.372;2023-10-09T08:36:24;17.80;99.90
8099;DHT22;4092;47.876;9.372;2023-10-09T08:38:53;17.80;99.90
8099;DHT22;4092;47.876;9.372;2023-10-09T08:41:24;17.80;99.90
8099;DHT22;4092;47.876;9.372;2023-10-09T08:43:56;17.90;99.90
8099;DHT22;4092;47.876;9.372;2023-10-09T08:46:26;17.90;99.90
8099;DHT22;4092;47.876;9.372;2023-10-09T08:48:54;18.00;99.90
8099;DHT22;4092;47.876;9.372;2023-10-09T08:51:24;18.00;99.90
8099;DHT22;4092;47.876;9.372;2023-10-09T08:53:51;18.10;99.90
8099;DHT22;4092;47.876;9.372;2023-10-09T08:56:20;18.20;99.90
8099;DHT22;4092;47.876;9.372;2023-10-09T08:58:50;18.20;99.90
8099;DHT22;4092;47.876;9.372;2023-10-09T09:01:17;18.20;99.90
8099;DHT22;4092;47.876;9.372;2023-10-09T09:03:50;18.10;99.90
8099;DHT22;4092;47.876;9.372;2023-10-09T09:06:18;18.10;99.90
8099;DHT22;4092;47.876;9.372;2023-10-09T09:08:46;18.20;99.90
8099;DHT22;4092;47.876;9.372;2023-10-09T09:11:15;18.20;99.90
8099;DHT22;4092;47.876;9.372;2023-10-09T09:14:00;18.20;99.90
8099;DHT22;4092;47.876;9.372;2023-10-09T09:16:30;18.30;99.90
8099;DHT22;4092;47.876;9.372;2023-10-09T09:19:01;18.30;99.90
8099;DHT22;4092;47.876;9.372;2023-10-09T09:21:31;18.40;99.90
8099;DHT22;4092;47.876;9.372;2023-10-09T09:24:05;18.40;99.90
8099;DHT22;4092;47.876;9.372;2023-10-09T09:26:42;18.50;99.90
8099;DHT22;4092;47.876;9.372;2023-10-09T09:29:12;18.50;99.90
8099;DHT22;4092;47.876;9.372;2023-10-09T09:31:52;18.50;99.90
8099;DHT22;4092;47.876;9.372;2023-10-09T09:34:21;18.50;99.90
8099;DHT22;4092;47.876;9.372;2023-10-09T09:36:53;18.60;99.90
8099;DHT22;4092;47.876;9.372;2023-10-09T09:39:26;18.60;99.90
8099;DHT22;4092;47.876;9.372;2023-10-09T09:41:58;18.60;99.90
8099;DHT22;4092;47.876;9.372;2023-10-09T09:44:33;18.50;99.90
8099;DHT22;4092;47.876;9.372;2023-10-09T09:47:09;18.50;99.90
8099;DHT22;4092;47.876;9.372;2023-10-09T09:49:41;18.50;99.90
8099;DHT22;4092;47.876;9.372;2023-10-09T09:52:09;18.40;99.90
8099;DHT22;4092;47.876;9.372;2023-10-09T09:54:37;18.40;99.90
8099;DHT22;4092;47.876;9.372;2023-10-09T09:57:06;18.40;99.90
8099;DHT22;4092;47.876;9.372;2023-10-09T09:59:38;18.50;99.90
8099;DHT22;4092;47.876;9.372;2023-10-09T10:02:20;18.40;99.90
8099;DHT22;4092;47.876;9.372;2023-10-09T10:04:53;18.40;99.90
8099;DHT22;4092;47.876;9.372;2023-10-09T10:07:23;18.50;99.90
8099;DHT22;4092;47.876;9.372;2023-10-09T10:09:51;18.50;99.90
8099;DHT22;4092;47.876;9.372;2023-10-09T10:12:50;18.60;99.90
8099;DHT22;4092;47.876;9.372;2023-10-09T10:18:23;18.60;99.90
8099;DHT22;4092;47.876;9.372;2023-10-09T10:21:14;18.70;99.90
8099;DHT22;4092;47.876;9.372;2023-10-09T10:23:43;18.80;99.90
8099;DHT22;4092;47.876;9.372;2023-10-09T10:26:22;18.80;99.90
8099;DHT22;4092;47.876;9.372;2023-10-09T10:29:14;19.00;99.90
8099;DHT22;4092;47.876;9.372;2023-10-09T10:31:55;19.20;99.90
8099;DHT22;4092;47.876;9.372;2023-10-09T10:34:23;19.30;99.90
8099;DHT22;4092;47.876;9.372;2023-10-09T10:36:53;19.40;99.90
8099;DHT22;4092;47.876;9.372;2023-10-09T10:39:25;19.60;99.90
8099;DHT22;4092;47.876;9.372;2023-10-09T10:42:09;19.70;99.90
8099;DHT22;4092;47.876;9.372;2023-10-09T10:44:41;19.80;99.90
8099;DHT22;4092;47.876;9.372;2023-10-09T10:47:12;19.80;99.90
8099;DHT22;4092;47.876;9.372;2023-10-09T10:49:51;19.80;99.90
8099;DHT22;4092;47.876;9.372;2023-10-09T10:52:26;19.80;99.90
8099;DHT22;4092;47.876;9.372;2023-10-09T10:55:08;19.80;99.90
8099;DHT22;4092;47.876;9.372;2023-10-09T10:57:44;19.80;99.90
8099;DHT22;4092;47.876;9.372;2023-10-09T11:00:27;20.00;99.90
8099;DHT22;4092;47.876;9.372;2023-10-09T11:03:17;20.00;99.90
8099;DHT22;4092;47.876;9.372;2023-10-09T11:05:57;20.10;99.90
8099;DHT22;4092;47.876;9.372;2023-10-09T11:08:43;20.20;99.90
8099;DHT22;4092;47.876;9.372;2023-10-09T11:11:20;20.20;99.90
8099;DHT22;4092;47.876;9.372;2023-10-09T11:13:47;20.30;99.90
8099;DHT22;4092;47.876;9.372;2023-10-09T11:16:23;20.40;99.90
8099;DHT22;4092;47.876;9.372;2023-10-09T11:19:08;20.40;99.90
8099;DHT22;4092;47.876;9.372;2023-10-09T11:21:49;20.40;99.90
8099;DHT22;4092;47.876;9.372;2023-10-09T11:24:27;20.50;99.90
8099;DHT22;4092;47.876;9.372;2023-10-09T11:26:58;20.60;99.90
8099;DHT22;4092;47.876;9.372;2023-10-09T11:29:33;20.50;99.90
8099;DHT22;4092;47.876;9.372;2023-10-09T11:32:15;20.60;99.90
8099;DHT22;4092;47.876;9.372;2023-10-09T11:34:44;20.80;99.90
8099;DHT22;4092;47.876;9.372;2023-10-09T11:37:18;20.70;99.90
8099;DHT22;4092;47.876;9.372;2023-10-09T11:40:06;20.60;99.90
8099;DHT22;4092;47.876;9.372;2023-10-09T11:42:49;20.40;99.90
8099;DHT22;4092;47.876;9.372;2023-10-09T11:45:20;20.30;99.90
8099;DHT22;4092;47.876;9.372;2023-10-09T11:47:51;20.20;99.90
8099;DHT22;4092;47.876;9.372;2023-10-09T11:50:40;20.10;99.90
8099;DHT22;4092;47.876;9.372;2023-10-09T11:53:17;19.90;99.90
8099;DHT22;4092;47.876;9.372;2023-10-09T11:55:46;19.90;99.90
8099;DHT22;4092;47.876;9.372;2023-10-09T11:58:15;19.80;99.90
8099;DHT22;4092;47.876;9.372;2023-10-09T12:00:49;19.80;99.90
8099;DHT22;4092;47.876;9.372;2023-10-09T12:03:23;19.80;99.90
8099;DHT22;4092;47.876;9.372;2023-10-09T12:05:54;19.70;99.90
8099;DHT22;4092;47.876;9.372;2023-10-09T12:08:22;19.70;99.90
8099;DHT22;4092;47.876;9.372;2023-10-09T12:10:54;19.70;99.90
8099;DHT22;4092;47.876;9.372;2023-10-09T12:13:22;19.60;99.90
8099;DHT22;4092;47.876;9.372;2023-10-09T12:15:50;19.60;99.90
8099;DHT22;4092;47.876;9.372;2023-10-09T12:18:19;19.50;99.90
8099;DHT22;4092;47.876;9.372;2023-10-09T12:20:47;19.50;99.90
8099;DHT22;4092;47.876;9.372;2023-10-09T12:23:17;19.40;99.90
8099;DHT22;4092;47.876;9.372;2023-10-09T12:25:45;19.40;99.90
8099;DHT22;4092;47.876;9.372;2023-10-09T12:28:15;19.30;99.90
8099;DHT22;4092;47.876;9.372;2023-10-09T12:30:46;19.30;99.90
8099;DHT22;4092;47.876;9.372;2023-10-09T12:33:16;19.30;99.90
8099;DHT22;4092;47.876;9.372;2023-10-09T12:35:43;19.30;99.90
8099;DHT22;4092;47.876;9.372;2023-10-09T12:38:13;19.20;99.90
8099;DHT22;4092;47.876;9.372;2023-10-09T12:40:44;19.20;99.90
8099;DHT22;4092;47.876;9.372;2023-10-09T12:43:17;19.20;99.90
8099;DHT22;4092;47.876;9.372;2023-10-09T12:45:45;19.10;99.90
8099;DHT22;4092;47.876;9.372;2023-10-09T12:48:12;19.10;99.90
8099;DHT22;4092;47.876;9.372;2023-10-09T12:50:40;19.00;99.90
8099;DHT22;4092;47.876;9.372;2023-10-09T12:53:10;19.00;99.90
8099;DHT22;4092;47.876;9.372;2023-10-09T12:55:43;19.00;99.90
8099;DHT22;4092;47.876;9.372;2023-10-09T12:58:11;18.90;99.90
8099;DHT22;4092;47.876;9.372;2023-10-09T13:00:43;19.00;99.90
8099;DHT22;4092;47.876;9.372;2023-10-09T13:03:15;18.90;99.90
8099;DHT22;4092;47.876;9.372;2023-10-09T13:05:55;18.80;99.90
8099;DHT22;4092;47.876;9.372;2023-10-09T13:08:23;18.80;99.90
8099;DHT22;4092;47.876;9.372;2023-10-09T13:11:03;18.80;99.90
8099;DHT22;4092;47.876;9.372;2023-10-09T13:13:40;18.70;99.90
8099;DHT22;4092;47.876;9.372;2023-10-09T13:16:11;18.70;99.90
8099;DHT22;4092;47.876;9.372;2023-10-09T13:18:40;18.70;99.90
8099;DHT22;4092;47.876;9.372;2023-10-09T13:21:18;18.70;99.90
8099;DHT22;4092;47.876;9.372;2023-10-09T13:23:46;18.60;99.90
8099;DHT22;4092;47.876;9.372;2023-10-09T13:26:17;18.60;99.90
8099;DHT22;4092;47.876;9.372;2023-10-09T13:28:50;18.60;99.90
8099;DHT22;4092;47.876;9.372;2023-10-09T13:31:22;18.70;99.90
8099;DHT22;4092;47.876;9.372;2023-10-09T13:33:51;18.60;99.90
8099;DHT22;4092;47.876;9.372;2023-10-09T13:36:20;18.60;99.90
8099;DHT22;4092;47.876;9.372;2023-10-09T13:38:55;18.50;99.90
8099;DHT22;4092;47.876;9.372;2023-10-09T13:41:38;18.40;99.90
8099;DHT22;4092;47.876;9.372;2023-10-09T13:44:07;18.40;99.90
8099;DHT22;4092;47.876;9.372;2023-10-09T13:46:36;18.40;99.90
8099;DHT22;4092;47.876;9.372;2023-10-09T13:49:12;18.40;99.90
8099;DHT22;4092;47.876;9.372;2023-10-09T13:51:40;18.40;99.90
8099;DHT22;4092;47.876;9.372;2023-10-09T13:54:11;18.40;99.90
8099;DHT22;4092;47.876;9.372;2023-10-09T13:56:47;18.40;99.90
8099;DHT22;4092;47.876;9.372;2023-10-09T13:59:19;18.50;99.90
8099;DHT22;4092;47.876;9.372;2023-10-09T14:01:51;18.50;99.90
8099;DHT22;4092;47.876;9.372;2023-10-09T14:04:20;18.60;99.90
8099;DHT22;4092;47.876;9.372;2023-10-09T14:06:49;18.60;99.90
8099;DHT22;4092;47.876;9.372;2023-10-09T14:09:23;18.70;99.90
8099;DHT22;4092;47.876;9.372;2023-10-09T14:12:05;18.70;99.90
8099;DHT22;4092;47.876;9.372;2023-10-09T14:14:41;18.70;99.90
8099;DHT22;4092;47.876;9.372;2023-10-09T14:17:14;18.70;99.90
8099;DHT22;4092;47.876;9.372;2023-10-09T14:19:47;18.70;99.90
8099;DHT22;4092;47.876;9.372;2023-10-09T14:22:16;18.70;99.90
8099;DHT22;4092;47.876;9.372;2023-10-09T14:24:44;18.70;99.90
8099;DHT22;4092;47.876;9.372;2023-10-09T14:27:11;18.80;99.90
8099;DHT22;4092;47.876;9.372;2023-10-09T14:29:43;18.80;99.90
8099;DHT22;4092;47.876;9.372;2023-10-09T14:32:10;18.80;99.90
8099;DHT22;4092;47.876;9.372;2023-10-09T14:34:40;18.80;99.90
8099;DHT22;4092;47.876;9.372;2023-10-09T14:37:11;18.80;99.90
8099;DHT22;4092;47.876;9.372;2023-10-09T14:39:40;18.80;99.90
8099;DHT22;4092;47.876;9.372;2023-10-09T14:42:07;18.90;99.90
8099;DHT22;4092;47.876;9.372;2023-10-09T14:44:36;18.80;99.90
8099;DHT22;4092;47.876;9.372;2023-10-09T14:47:04;18.90;99.90
8099;DHT22;4092;47.876;9.372;2023-10-09T14:49:32;18.90;99.90
8099;DHT22;4092;47.876;9.372;2023-10-09T14:52:04;18.90;99.90
8099;DHT22;4092;47.876;9.372;2023-10-09T14:54:34;18.90;99.90
8099;DHT22;4092;47.876;9.372;2023-10-09T14:57:01;19.00;99.90
8099;DHT22;4092;47.876;9.372;2023-10-09T14:59:31;18.90;99.90
8099;DHT22;4092;47.876;9.372;2023-10-09T15:01:58;18.90;99.90
8099;DHT22;4092;47.876;9.372;2023-10-09T15:04:25;18.80;99.90
8099;DHT22;4092;47.876;9.372;2023-10-09T15:06:52;18.90;99.90
8099;DHT22;4092;47.876;9.372;2023-10-09T15:09:20;18.90;99.90
8099;DHT22;4092;47.876;9.372;2023-10-09T15:11:48;18.90;99.90
8099;DHT22;4092;47.876;9.372;2023-10-09T15:14:16;18.90;99.90
8099;DHT22;4092;47.876;9.372;2023-10-09T15:16:44;18.90;99.90
8099;DHT22;4092;47.876;9.372;2023-10-09T15:19:11;18.90;99.90
8099;DHT22;4092;47.876;9.372;2023-10-09T15:21:39;18.90;99.90
8099;DHT22;4092;47.876;9.372;2023-10-09T15:24:10;18.90;99.90
8099;DHT22;4092;47.876;9.372;2023-10-09T15:26:39;18.90;99.90
8099;DHT22;4092;47.876;9.372;2023-10-09T15:29:06;18.80;99.90
8099;DHT22;4092;47.876;9.372;2023-10-09T15:31:35;18.70;99.90
8099;DHT22;4092;47.876;9.372;2023-10-09T15:34:02;18.70;99.90
8099;DHT22;4092;47.876;9.372;2023-10-09T15:36:34;18.70;99.90
8099;DHT22;4092;47.876;9.372;2023-10-09T15:39:02;18.70;99.90
8099;DHT22;4092;47.876;9.372;2023-10-09T15:41:33;18.70;99.90
8099;DHT22;4092;47.876;9.372;2023-10-09T15:44:01;18.60;99.90
8099;DHT22;4092;47.876;9.372;2023-10-09T15:46:28;18.60;99.90
8099;DHT22;4092;47.876;9.372;2023-10-09T15:49:00;18.50;99.90
8099;DHT22;4092;47.876;9.372;2023-10-09T15:51:27;18.40;99.90
8099;DHT22;4092;47.876;9.372;2023-10-09T15:53:56;18.40;99.90
8099;DHT22;4092;47.876;9.372;2023-10-09T15:56:24;18.30;99.90
8099;DHT22;4092;47.876;9.372;2023-10-09T15:58:52;18.30;99.90
8099;DHT22;4092;47.876;9.372;2023-10-09T16:01:20;18.20;99.90
8099;DHT22;4092;47.876;9.372;2023-10-09T16:03:48;18.20;99.90
8099;DHT22;4092;47.876;9.372;2023-10-09T16:06:16;18.10;99.90
8099;DHT22;4092;47.876;9.372;2023-10-09T16:08:45;18.10;99.90
8099;DHT22;4092;47.876;9.372;2023-10-09T16:11:16;18.00;99.90
8099;DHT22;4092;47.876;9.372;2023-10-09T16:13:44;18.00;99.90
8099;DHT22;4092;47.876;9.372;2023-10-09T16:16:11;17.90;99.90
8099;DHT22;4092;47.876;9.372;2023-10-09T16:18:40;17.80;99.90
8099;DHT22;4092;47.876;9.372;2023-10-09T16:21:07;17.80;99.90
8099;DHT22;4092;47.876;9.372;2023-10-09T16:23:37;17.70;99.90
8099;DHT22;4092;47.876;9.372;2023-10-09T16:26:04;17.70;99.90
8099;DHT22;4092;47.876;9.372;2023-10-09T16:28:33;17.60;99.90
8099;DHT22;4092;47.876;9.372;2023-10-09T16:31:00;17.50;99.90
8099;DHT22;4092;47.876;9.372;2023-10-09T16:33:29;17.50;99.90
8099;DHT22;4092;47.876;9.372;2023-10-09T16:36:07;17.50;99.90
8099;DHT22;4092;47.876;9.372;2023-10-09T16:38:34;17.40;99.90
8099;DHT22;4092;47.876;9.372;2023-10-09T16:41:05;17.30;99.90
8099;DHT22;4092;47.876;9.372;2023-10-09T16:43:33;17.30;99.90
8099;DHT22;4092;47.876;9.372;2023-10-09T16:46:02;17.20;99.90
8099;DHT22;4092;47.876;9.372;2023-10-09T16:48:34;17.10;99.90